Terminal Aerodrome Forecast
Issued by NWS Twin Cities, MN

Home | Current Version | Previous Version | Graphics & Text | Print | Product List | Glossary On
Versions: 1 2 3 4 5 6 7 8 9 10 11 12 13 14 15 16 17 18 19 20 21 22 23 24 25 26
000
FTUS43 KMPX 200520
TAFMSP
TAF
KMSP 200520Z 2006/2112 16007KT P6SM SKC WS020/22040KT
     FM201500 18007KT P6SM SKC
     FM201800 17013G20KT P6SM FEW250
     FM210200 17009KT P6SM SCT150 WS020/19040KT
     FM210600 17009KT P6SM BKN100=

USA.gov is the U.S. government's official web portal to all federal, state and local government web resources and services.